an hour ago
Runway Headwind Crosswind Length
3/21 8 kt 2 kt 11,165 ft
METAR DGAA 202000Z 22009KT 9999 BKN010 25/24 Q1015 NOSIG

METAR definition | Embed

METAR Kotoka International Airport

Kotoka International Airport is a large airport in Accra, Ghana. The airport has one runway: 3/21 (11,165 ft)

This report was made for Kotoka International Airport on June 20, 2021 8:00 pm, local time.

Airport observations

The wind is from direction southwest (220°) with a speed of 9 kt.

Visibility is 6¼ mi or more.

There are broken clouds at an altitude of 1,000 ft. The ceiling, broken or more, is 1,000 ft.

The temperature and wind chill are 77 °F. The dew point is 75 °F, the relative humidity is 94%. The air pressure at sea level is 29.97 inHg (QNH).

Daylight period

Today the sun rises at 5:48 am and sets at 6:15 pm. This applies to Kotoka International Airport, the universal daylight period may be different. The difference between the local time and UTC is +0 hour. Daylight saving time is currently in progress.

Historical data

Donate

Will you help us to keep Metar-Taf.com running?
Your contribution helps further development of the site and to pay for the expenses.

No more ads

Are you donating $ 5 or more? Then we'll never show you ads again, as a token of our eternal gratitude!
Log in before you donate

Do you want the flying weather of Kotoka International Airport on your website? Read more   Free!